Time;durP1;ratioP1;P1;durP2;ratioP2;P2;SDS_P1;SDS_P2;PMS_P1;PMS_P2;Temp;Humidity;BMP_temperature;BMP_pressure;BME280_temperature;BME280_humidity;BME280_pressure;Samples;Min_cycle;Max_cycle;Signal;HPM_P1;HPM_P2
2022/11/08 00:04:10;;;;;;;29.85;18.42;;;;;;;;;;5156006;27;20044;-74
2022/11/08 00:16:09;;;;;;;24.00;13.65;;;;;;;;;;5155435;27;20010;-73
2022/11/08 00:18:54;;;;;;;26.02;14.00;;;;;;;;;;5155536;27;20046;-73
2022/11/08 00:21:40;;;;;;;23.48;13.43;;;;;;;;;;5154886;27;20049;-74
2022/11/08 00:24:25;;;;;;;23.35;13.10;;;;;;;;;;5155579;27;20042;-73
2022/11/08 00:27:19;;;;;;;20.08;13.20;;;;;;;;;;5139744;27;20038;-73
2022/11/08 00:30:05;;;;;;;23.83;13.80;;;;;;;;;;5155490;27;20015;-74
2022/11/08 00:32:50;;;;;;;20.30;12.52;;;;;;;;;;5154979;27;20448;-73
2022/11/08 00:35:36;;;;;;;20.05;13.05;;;;;;;;;;5155529;27;20019;-73
2022/11/08 00:38:21;;;;;;;21.33;12.65;;;;;;;;;;5154460;27;20417;-73
2022/11/08 00:41:07;;;;;;;20.50;12.35;;;;;;;;;;5139755;27;20026;-73
2022/11/08 00:43:52;;;;;;;19.88;12.43;;;;;;;;;;5155286;27;20015;-73
2022/11/08 00:46:38;;;;;;;19.95;11.70;;;;;;;;;;5156700;27;20046;-74
2022/11/08 00:49:23;;;;;;;17.58;11.30;;;;;;;;;;5158515;27;20126;-74
2022/11/08 00:52:09;;;;;;;21.85;12.65;;;;;;;;;;5158068;27;20014;-73
2022/11/08 00:54:55;;;;;;;18.80;11.73;;;;;;;;;;5158251;27;20432;-74
2022/11/08 00:57:40;;;;;;;19.63;11.10;;;;;;;;;;5157917;27;20087;-74
2022/11/08 01:00:26;;;;;;;20.23;11.73;;;;;;;;;;5158511;27;20073;-73
2022/11/08 01:03:17;;;;;;;19.23;11.93;;;;;;;;;;5142885;27;20145;-73
2022/11/08 01:06:04;;;;;;;16.85;11.40;;;;;;;;;;5157271;27;20022;-72
2022/11/08 01:08:50;;;;;;;18.05;11.10;;;;;;;;;;5158210;27;20488;-73
2022/11/08 01:11:36;;;;;;;18.65;11.23;;;;;;;;;;5158448;27;20019;-73
2022/11/08 01:14:22;;;;;;;18.70;11.23;;;;;;;;;;5158068;27;20348;-74
2022/11/08 01:17:07;;;;;;;15.98;10.60;;;;;;;;;;5142422;27;20460;-74
2022/11/08 01:19:53;;;;;;;19.38;11.73;;;;;;;;;;5157851;27;20094;-74
2022/11/08 01:22:38;;;;;;;16.45;10.98;;;;;;;;;;5157733;27;20010;-73
2022/11/08 01:25:24;;;;;;;17.85;11.77;;;;;;;;;;5157570;27;20034;-74
2022/11/08 01:28:10;;;;;;;16.45;11.35;;;;;;;;;;5142099;27;20114;-72
2022/11/08 01:30:56;;;;;;;17.55;11.48;;;;;;;;;;5157464;27;20025;-74
2022/11/08 01:33:42;;;;;;;20.13;11.68;;;;;;;;;;5158353;27;20015;-74
2022/11/08 01:36:28;;;;;;;21.00;12.10;;;;;;;;;;5157741;27;20075;-73
2022/11/08 01:39:15;;;;;;;17.17;11.60;;;;;;;;;;5157187;27;20019;-73
2022/11/08 01:42:00;;;;;;;18.15;12.10;;;;;;;;;;5157732;27;20023;-74
2022/11/08 01:44:56;;;;;;;17.60;11.73;;;;;;;;;;5157712;27;20122;-74
2022/11/08 01:47:41;;;;;;;21.95;13.10;;;;;;;;;;5142841;27;20011;-74
2022/11/08 01:50:27;;;;;;;26.13;18.30;;;;;;;;;;5157638;27;20440;-74
2022/11/08 01:53:12;;;;;;;41.25;25.98;;;;;;;;;;5157390;27;20019;-74
2022/11/08 01:55:58;;;;;;;51.95;35.42;;;;;;;;;;5157229;27;20022;-74
2022/11/08 01:58:46;;;;;;;50.83;35.55;;;;;;;;;;5156475;27;20409;-74
2022/11/08 02:01:31;;;;;;;41.35;28.75;;;;;;;;;;5156813;27;20509;-73
2022/11/08 02:04:17;;;;;;;36.25;23.80;;;;;;;;;;5157532;27;20386;-74
2022/11/08 02:07:03;;;;;;;30.85;18.67;;;;;;;;;;5156657;27;20014;-73
2022/11/08 02:09:49;;;;;;;24.80;16.02;;;;;;;;;;5155713;27;20054;-73
2022/11/08 02:12:34;;;;;;;25.70;15.80;;;;;;;;;;5142333;27;20022;-73
2022/11/08 02:15:21;;;;;;;24.52;14.82;;;;;;;;;;5127196;27;20105;-74
2022/11/08 02:18:07;;;;;;;25.85;15.27;;;;;;;;;;5155916;27;20085;-72
2022/11/08 02:20:52;;;;;;;21.85;14.80;;;;;;;;;;5156884;27;20101;-74
2022/11/08 02:23:38;;;;;;;21.15;14.18;;;;;;;;;;5156657;27;20463;-74
2022/11/08 02:26:26;;;;;;;20.77;13.98;;;;;;;;;;5142520;27;20039;-73
2022/11/08 02:29:29;;;;;;;23.75;13.82;;;;;;;;;;5156383;27;20022;-73
2022/11/08 02:32:14;;;;;;;20.85;13.27;;;;;;;;;;5156559;27;20090;-75
2022/11/08 02:35:00;;;;;;;19.00;13.45;;;;;;;;;;5157271;27;20057;-73
2022/11/08 02:37:46;;;;;;;21.75;13.45;;;;;;;;;;5156345;27;20026;-74
2022/11/08 02:40:44;;;;;;;21.42;12.95;;;;;;;;;;5157472;27;20036;-74
2022/11/08 02:43:29;;;;;;;21.88;13.18;;;;;;;;;;5156333;27;20034;-74
2022/11/08 02:46:15;;;;;;;18.67;12.50;;;;;;;;;;5156961;27;20089;-73
2022/11/08 02:49:00;;;;;;;21.85;13.07;;;;;;;;;;5149972;27;20018;-75
2022/11/08 02:51:46;;;;;;;22.27;12.50;;;;;;;;;;5157541;27;20033;-74
2022/11/08 02:54:31;;;;;;;16.90;12.30;;;;;;;;;;5156625;27;20321;-73
2022/11/08 02:57:17;;;;;;;18.73;12.60;;;;;;;;;;5155489;27;20417;-74
2022/11/08 03:00:03;;;;;;;20.83;12.98;;;;;;;;;;5155746;27;20046;-74
2022/11/08 03:02:52;;;;;;;24.75;14.02;;;;;;;;;;5156132;27;20425;-73
2022/11/08 03:05:37;;;;;;;21.60;13.27;;;;;;;;;;5155720;27;20050;-73
2022/11/08 03:08:23;;;;;;;24.00;12.73;;;;;;;;;;5157626;27;20070;-74
2022/11/08 03:11:09;;;;;;;22.40;13.75;;;;;;;;;;5159492;27;20011;-74
2022/11/08 03:13:54;;;;;;;22.40;13.32;;;;;;;;;;5156405;27;20011;-74
2022/11/08 03:16:40;;;;;;;22.95;13.80;;;;;;;;;;5154577;27;20011;-74
2022/11/08 03:19:25;;;;;;;20.00;13.07;;;;;;;;;;5156625;27;20052;-75
2022/11/08 03:22:11;;;;;;;21.08;13.80;;;;;;;;;;5155647;27;20062;-73
2022/11/08 03:24:56;;;;;;;20.42;13.27;;;;;;;;;;5155017;27;20026;-72
2022/11/08 03:27:42;;;;;;;23.35;14.45;;;;;;;;;;5139711;27;20459;-75
2022/11/08 03:30:27;;;;;;;24.00;13.65;;;;;;;;;;5140371;27;20071;-75
2022/11/08 03:33:13;;;;;;;22.40;14.05;;;;;;;;;;5155722;27;20015;-74
2022/11/08 03:35:59;;;;;;;20.95;13.35;;;;;;;;;;5155125;27;20018;-73
2022/11/08 03:38:44;;;;;;;20.70;13.13;;;;;;;;;;5155418;27;20524;-73
2022/11/08 03:41:30;;;;;;;24.58;14.50;;;;;;;;;;5155249;27;20109;-73
2022/11/08 03:44:18;;;;;;;20.85;13.90;;;;;;;;;;5153982;27;20029;-74
2022/11/08 03:47:03;;;;;;;23.10;13.50;;;;;;;;;;5154801;27;20031;-73
2022/11/08 03:49:49;;;;;;;20.75;13.60;;;;;;;;;;5155406;27;20046;-72
2022/11/08 03:52:41;;;;;;;19.85;13.20;;;;;;;;;;5154652;27;20015;-74
2022/11/08 03:55:27;;;;;;;25.02;14.35;;;;;;;;;;5139563;27;20071;-72
2022/11/08 03:58:13;;;;;;;26.17;13.48;;;;;;;;;;5154439;27;20011;-73
2022/11/08 04:01:02;;;;;;;21.90;13.57;;;;;;;;;;5153914;27;20026;-73
2022/11/08 04:03:47;;;;;;;23.17;14.13;;;;;;;;;;5154576;27;20087;-74
2022/11/08 04:06:33;;;;;;;24.90;14.35;;;;;;;;;;5155360;27;20015;-74
2022/11/08 04:09:19;;;;;;;27.50;15.85;;;;;;;;;;5155401;27;20019;-74
2022/11/08 04:15:14;;;;;;;24.73;15.48;;;;;;;;;;5155994;27;20038;-74
2022/11/08 04:21:21;;;;;;;27.10;16.77;;;;;;;;;;5155317;27;20019;-73
2022/11/08 04:24:06;;;;;;;27.20;17.00;;;;;;;;;;5159338;27;20030;-74
2022/11/08 04:26:52;;;;;;;24.58;16.40;;;;;;;;;;5143188;27;20325;-74
2022/11/08 04:29:38;;;;;;;24.65;15.68;;;;;;;;;;5158641;27;20344;-74
2022/11/08 04:32:24;;;;;;;25.17;15.50;;;;;;;;;;5158772;27;20023;-74
2022/11/08 04:35:09;;;;;;;25.13;16.23;;;;;;;;;;5158482;27;20026;-74
2022/11/08 04:37:59;;;;;;;26.98;15.55;;;;;;;;;;5158659;27;20026;-73
2022/11/08 04:40:44;;;;;;;26.02;16.15;;;;;;;;;;5158430;27;20106;-74
2022/11/08 04:43:31;;;;;;;27.52;16.15;;;;;;;;;;5143432;27;20018;-73
2022/11/08 04:46:18;;;;;;;26.55;16.17;;;;;;;;;;5142934;27;20061;-74
2022/11/08 04:49:03;;;;;;;29.38;17.05;;;;;;;;;;5158455;27;20019;-74
2022/11/08 04:51:49;;;;;;;29.63;17.67;;;;;;;;;;5158551;27;20409;-74
2022/11/08 04:54:34;;;;;;;31.05;18.67;;;;;;;;;;5158410;27;20034;-74
2022/11/08 04:57:20;;;;;;;33.80;16.80;;;;;;;;;;5157567;27;20038;-74
2022/11/08 05:00:06;;;;;;;30.27;17.80;;;;;;;;;;5158071;27;20027;-73
2022/11/08 05:02:51;;;;;;;28.10;16.48;;;;;;;;;;5157953;27;20090;-74
2022/11/08 05:05:37;;;;;;;28.55;16.58;;;;;;;;;;5158078;27;20037;-74
2022/11/08 05:08:23;;;;;;;27.88;16.30;;;;;;;;;;5158378;27;20101;-74
2022/11/08 05:11:10;;;;;;;27.02;17.35;;;;;;;;;;5158562;27;20023;-75
2022/11/08 05:13:55;;;;;;;33.00;16.83;;;;;;;;;;5142126;27;20103;-74
2022/11/08 05:16:41;;;;;;;27.42;16.13;;;;;;;;;;5157899;27;20040;-73
2022/11/08 05:25:39;;;;;;;27.05;16.05;;;;;;;;;;5158441;27;20079;-72
2022/11/08 05:28:24;;;;;;;33.03;16.95;;;;;;;;;;5142039;27;20019;-72
2022/11/08 05:31:10;;;;;;;37.15;17.50;;;;;;;;;;5157827;27;20057;-73
2022/11/08 05:33:56;;;;;;;30.05;17.17;;;;;;;;;;5141232;27;20011;-73
2022/11/08 05:36:42;;;;;;;30.38;17.17;;;;;;;;;;5158237;27;20046;-74
2022/11/08 05:39:27;;;;;;;27.58;16.40;;;;;;;;;;5157610;27;20014;-74
2022/11/08 05:42:13;;;;;;;31.85;17.55;;;;;;;;;;5158218;27;20076;-74
2022/11/08 05:44:58;;;;;;;30.88;18.23;;;;;;;;;;5142550;27;20058;-73
2022/11/08 05:47:44;;;;;;;31.33;17.88;;;;;;;;;;5157686;27;20341;-74
2022/11/08 05:50:33;;;;;;;30.23;16.65;;;;;;;;;;5157283;27;20041;-72
2022/11/08 05:53:19;;;;;;;31.55;17.17;;;;;;;;;;5157682;27;20436;-75
2022/11/08 05:56:05;;;;;;;32.20;17.00;;;;;;;;;;5157038;27;20054;-74
2022/11/08 05:58:50;;;;;;;29.95;15.18;;;;;;;;;;5158240;27;20055;-73
2022/11/08 06:01:36;;;;;;;28.17;15.95;;;;;;;;;;5158166;27;20014;-75
2022/11/08 06:04:22;;;;;;;27.58;15.50;;;;;;;;;;5158103;27;20030;-76
2022/11/08 06:07:07;;;;;;;27.35;15.52;;;;;;;;;;5158380;27;20426;-74
2022/11/08 06:09:53;;;;;;;25.95;15.52;;;;;;;;;;5158774;27;20508;-77
2022/11/08 06:12:38;;;;;;;23.75;15.50;;;;;;;;;;5157047;27;20094;-74
2022/11/08 06:15:24;;;;;;;24.48;15.30;;;;;;;;;;5157956;27;20110;-75
2022/11/08 06:18:10;;;;;;;31.30;16.27;;;;;;;;;;5156935;27;20011;-75
2022/11/08 06:20:58;;;;;;;24.67;15.18;;;;;;;;;;5157038;27;20109;-76
2022/11/08 06:23:44;;;;;;;25.08;15.43;;;;;;;;;;5156071;27;20023;-73
2022/11/08 06:26:30;;;;;;;34.88;16.83;;;;;;;;;;5156047;27;20011;-75
2022/11/08 06:29:15;;;;;;;33.00;16.77;;;;;;;;;;5157268;27;20031;-73
2022/11/08 06:32:01;;;;;;;28.50;16.02;;;;;;;;;;5156741;27;20037;-75
2022/11/08 06:34:47;;;;;;;35.40;16.42;;;;;;;;;;5156463;27;20099;-77
2022/11/08 06:37:33;;;;;;;27.00;17.13;;;;;;;;;;5156406;27;20023;-77
2022/11/08 06:40:18;;;;;;;26.45;15.80;;;;;;;;;;5156301;27;20019;-76
2022/11/08 06:43:05;;;;;;;33.88;17.52;;;;;;;;;;5156701;27;20031;-75
2022/11/08 06:45:50;;;;;;;28.73;16.33;;;;;;;;;;5155122;27;20126;-74
2022/11/08 06:48:36;;;;;;;26.52;16.80;;;;;;;;;;5156694;27;20089;-74
2022/11/08 06:51:22;;;;;;;29.80;15.80;;;;;;;;;;5140832;27;20423;-75
2022/11/08 06:54:08;;;;;;;30.83;16.27;;;;;;;;;;5156433;27;20022;-74
2022/11/08 06:56:54;;;;;;;26.65;16.50;;;;;;;;;;5156193;27;20018;-75
2022/11/08 06:59:40;;;;;;;26.17;16.95;;;;;;;;;;5155807;27;20489;-77
2022/11/08 07:02:25;;;;;;;29.40;17.45;;;;;;;;;;5155680;27;20393;-76
2022/11/08 07:05:11;;;;;;;34.15;17.63;;;;;;;;;;5156209;27;20030;-74
2022/11/08 07:07:57;;;;;;;31.98;18.17;;;;;;;;;;5155870;27;20444;-74
2022/11/08 07:10:43;;;;;;;27.42;18.02;;;;;;;;;;5155354;27;20023;-76
2022/11/08 07:13:29;;;;;;;35.13;16.92;;;;;;;;;;5155430;27;20026;-74
2022/11/08 07:16:14;;;;;;;31.17;18.25;;;;;;;;;;5140447;27;20103;-76
2022/11/08 07:19:00;;;;;;;32.63;18.50;;;;;;;;;;5155806;27;20448;-75
2022/11/08 07:21:45;;;;;;;34.47;19.48;;;;;;;;;;5140936;27;20420;-75
2022/11/08 07:24:31;;;;;;;41.72;21.23;;;;;;;;;;5141387;27;20038;-74
2022/11/08 07:27:17;;;;;;;38.55;20.42;;;;;;;;;;5155535;27;20102;-73
2022/11/08 07:30:02;;;;;;;36.88;19.73;;;;;;;;;;5155992;27;20014;-74
2022/11/08 07:32:48;;;;;;;33.25;19.00;;;;;;;;;;5155323;27;20444;-74
2022/11/08 07:35:34;;;;;;;34.95;19.92;;;;;;;;;;5154920;27;20034;-74
2022/11/08 07:38:20;;;;;;;41.15;19.35;;;;;;;;;;5155370;27;20030;-74
2022/11/08 07:41:05;;;;;;;40.40;20.08;;;;;;;;;;5154955;27;20456;-73
2022/11/08 07:43:51;;;;;;;34.22;18.23;;;;;;;;;;5155989;27;20103;-74
2022/11/08 07:46:36;;;;;;;34.25;18.08;;;;;;;;;;5155380;27;20070;-74
2022/11/08 07:49:22;;;;;;;32.85;16.27;;;;;;;;;;5155044;27;20076;-75
2022/11/08 07:52:08;;;;;;;32.78;15.50;;;;;;;;;;5155749;27;20417;-74
2022/11/08 07:54:53;;;;;;;24.95;14.00;;;;;;;;;;5155861;27;20018;-75
2022/11/08 07:57:39;;;;;;;26.45;14.48;;;;;;;;;;5145683;27;20054;-74
2022/11/08 08:00:24;;;;;;;22.75;13.95;;;;;;;;;;5162130;27;20019;-75
2022/11/08 08:03:11;;;;;;;22.42;14.40;;;;;;;;;;5147014;27;20460;-73
2022/11/08 08:05:57;;;;;;;27.88;14.80;;;;;;;;;;5146692;27;20026;-74
2022/11/08 08:08:42;;;;;;;28.17;14.75;;;;;;;;;;5161230;27;20022;-75
2022/11/08 08:11:28;;;;;;;23.77;14.07;;;;;;;;;;5146319;27;20113;-74
2022/11/08 08:14:14;;;;;;;29.05;16.75;;;;;;;;;;5161660;27;20018;-74
2022/11/08 08:16:59;;;;;;;21.45;13.32;;;;;;;;;;5161602;27;20022;-75
2022/11/08 08:19:45;;;;;;;25.10;14.27;;;;;;;;;;5162082;27;20071;-74
2022/11/08 08:22:30;;;;;;;19.02;12.75;;;;;;;;;;5162332;27;20348;-74
2022/11/08 08:25:16;;;;;;;22.58;14.07;;;;;;;;;;5161862;27;20083;-74
2022/11/08 08:28:04;;;;;;;23.10;13.55;;;;;;;;;;5145914;27;20079;-74
2022/11/08 08:30:50;;;;;;;18.75;12.32;;;;;;;;;;5161482;27;20106;-74
2022/11/08 08:33:36;;;;;;;17.73;12.23;;;;;;;;;;5146946;27;20348;-75
2022/11/08 08:36:21;;;;;;;20.90;12.82;;;;;;;;;;5161284;27;20029;-74
2022/11/08 08:39:07;;;;;;;19.10;12.77;;;;;;;;;;5146323;27;20101;-74
2022/11/08 08:41:53;;;;;;;22.75;12.40;;;;;;;;;;5161012;27;20023;-74
2022/11/08 08:44:38;;;;;;;19.38;13.05;;;;;;;;;;5161415;27;20042;-74
2022/11/08 08:47:24;;;;;;;16.63;12.02;;;;;;;;;;5162048;27;20034;-75
2022/11/08 08:50:09;;;;;;;18.92;11.75;;;;;;;;;;5161972;27;20478;-74
2022/11/08 08:52:59;;;;;;;16.70;11.45;;;;;;;;;;5160881;27;20023;-75
2022/11/08 08:55:46;;;;;;;19.23;11.90;;;;;;;;;;5161184;27;20029;-74
2022/11/08 08:58:32;;;;;;;19.55;11.45;;;;;;;;;;5160638;27;20030;-73
2022/11/08 09:01:18;;;;;;;38.80;22.65;;;;;;;;;;5146223;27;20397;-74
2022/11/08 09:04:03;;;;;;;21.02;13.40;;;;;;;;;;5161951;27;20056;-74
2022/11/08 09:06:49;;;;;;;27.20;15.18;;;;;;;;;;5145684;27;20514;-75
2022/11/08 09:09:35;;;;;;;23.30;11.85;;;;;;;;;;5158693;27;20105;-73
2022/11/08 09:12:21;;;;;;;18.23;11.88;;;;;;;;;;5158290;27;20034;-76
2022/11/08 09:15:07;;;;;;;22.20;12.93;;;;;;;;;;5157383;27;20018;-74
2022/11/08 09:17:53;;;;;;;18.23;12.40;;;;;;;;;;5157450;27;20015;-74
2022/11/08 09:20:39;;;;;;;19.13;12.20;;;;;;;;;;5143924;27;20037;-75
2022/11/08 09:23:24;;;;;;;16.92;11.05;;;;;;;;;;5157886;27;20100;-74
2022/11/08 09:26:10;;;;;;;20.05;11.07;;;;;;;;;;5157455;27;20447;-76
2022/11/08 09:28:55;;;;;;;22.42;12.50;;;;;;;;;;5143161;27;20110;-75
2022/11/08 09:31:41;;;;;;;26.80;11.73;;;;;;;;;;5157692;27;20038;-74
2022/11/08 09:34:27;;;;;;;17.38;11.13;;;;;;;;;;5157890;27;20083;-75
2022/11/08 09:37:13;;;;;;;13.27;9.82;;;;;;;;;;5157475;27;20111;-75
2022/11/08 09:39:58;;;;;;;17.05;10.88;;;;;;;;;;5156722;27;20109;-75
2022/11/08 09:42:44;;;;;;;18.27;10.77;;;;;;;;;;5157839;27;20026;-75
2022/11/08 09:45:33;;;;;;;19.33;10.25;;;;;;;;;;5157146;27;20057;-75
2022/11/08 09:48:25;;;;;;;15.65;10.52;;;;;;;;;;5156529;27;20151;-74
2022/11/08 09:51:19;;;;;;;16.27;10.70;;;;;;;;;;5141518;27;20097;-75
2022/11/08 09:54:07;;;;;;;14.55;10.88;;;;;;;;;;5156601;27;20019;-75
2022/11/08 09:56:55;;;;;;;17.35;10.48;;;;;;;;;;5141295;27;20072;-75
2022/11/08 09:59:46;;;;;;;17.77;11.52;;;;;;;;;;5156568;27;20018;-77
2022/11/08 10:02:33;;;;;;;15.60;10.60;;;;;;;;;;5157000;27;20025;-77
2022/11/08 10:05:18;;;;;;;17.05;10.10;;;;;;;;;;5141399;27;20037;-77
2022/11/08 10:08:19;;;;;;;19.15;10.20;;;;;;;;;;5156737;27;20030;-76
2022/11/08 10:11:11;;;;;;;18.98;10.43;;;;;;;;;;5156326;27;20086;-76
2022/11/08 10:14:05;;;;;;;15.70;9.82;;;;;;;;;;5141404;27;20023;-76
2022/11/08 10:17:00;;;;;;;17.00;10.63;;;;;;;;;;5156520;27;20105;-77
2022/11/08 10:20:05;;;;;;;18.38;10.10;;;;;;;;;;5155656;27;20029;-77
2022/11/08 10:23:14;;;;;;;26.05;16.15;;;;;;;;;;5142404;27;20448;-77
2022/11/08 10:26:01;;;;;;;17.45;10.77;;;;;;;;;;5132675;27;20046;-77
2022/11/08 10:28:50;;;;;;;16.88;10.15;;;;;;;;;;5155913;27;20015;-76
2022/11/08 10:31:37;;;;;;;17.00;10.73;;;;;;;;;;5156725;27;20463;-76
2022/11/08 10:34:25;;;;;;;17.23;10.52;;;;;;;;;;5157082;27;20014;-77
2022/11/08 10:37:12;;;;;;;20.77;10.90;;;;;;;;;;5155595;27;20044;-77
2022/11/08 10:40:04;;;;;;;19.65;10.80;;;;;;;;;;5156571;27;20022;-77
2022/11/08 10:43:08;;;;;;;18.38;10.65;;;;;;;;;;5157582;27;20029;-77
2022/11/08 10:45:54;;;;;;;20.10;11.30;;;;;;;;;;5156000;27;20380;-75
2022/11/08 10:48:40;;;;;;;18.70;11.30;;;;;;;;;;5157002;27;20074;-77
2022/11/08 10:51:25;;;;;;;18.05;11.82;;;;;;;;;;5156543;27;20027;-77
2022/11/08 10:54:29;;;;;;;25.70;12.27;;;;;;;;;;5156517;27;20011;-77
2022/11/08 10:57:16;;;;;;;24.40;11.27;;;;;;;;;;5156289;27;20061;-76
2022/11/08 11:00:16;;;;;;;18.25;10.85;;;;;;;;;;5140820;27;20122;-76
2022/11/08 11:03:05;;;;;;;17.90;10.27;;;;;;;;;;5155771;27;20156;-76
2022/11/08 11:06:11;;;;;;;17.75;10.35;;;;;;;;;;5156248;27;20027;-77
2022/11/08 11:09:15;;;;;;;13.48;9.82;;;;;;;;;;5154835;27;20026;-74
2022/11/08 11:12:06;;;;;;;18.08;11.35;;;;;;;;;;5156451;27;20041;-76
2022/11/08 11:14:55;;;;;;;21.15;11.88;;;;;;;;;;5155938;27;20065;-75
2022/11/08 11:17:43;;;;;;;20.60;10.95;;;;;;;;;;5154938;27;20014;-76
2022/11/08 11:20:30;;;;;;;18.48;10.98;;;;;;;;;;5156039;27;20097;-76
2022/11/08 11:23:15;;;;;;;16.27;10.50;;;;;;;;;;5155759;27;20467;-76
2022/11/08 11:26:01;;;;;;;20.55;10.80;;;;;;;;;;5155412;27;20041;-76
2022/11/08 11:29:08;;;;;;;22.90;11.45;;;;;;;;;;5155904;27;20022;-77
2022/11/08 11:31:53;;;;;;;17.08;11.05;;;;;;;;;;5154915;27;20471;-77
2022/11/08 11:34:48;;;;;;;18.38;10.60;;;;;;;;;;5155319;27;20031;-77
2022/11/08 11:37:44;;;;;;;16.90;10.68;;;;;;;;;;5155144;27;20464;-76
2022/11/08 11:40:55;;;;;;;16.90;10.52;;;;;;;;;;5154843;27;20018;-76
2022/11/08 11:43:59;;;;;;;17.17;10.43;;;;;;;;;;5154374;27;20022;-77
2022/11/08 11:46:48;;;;;;;14.65;9.63;;;;;;;;;;5155459;27;20045;-77
2022/11/08 11:49:34;;;;;;;15.25;9.50;;;;;;;;;;5155435;27;20060;-77
2022/11/08 11:52:20;;;;;;;18.85;9.30;;;;;;;;;;5155618;27;20011;-77
2022/11/08 11:55:05;;;;;;;15.95;8.70;;;;;;;;;;5155120;27;20015;-77
2022/11/08 11:57:51;;;;;;;15.43;9.18;;;;;;;;;;5154352;27;20026;-77
2022/11/08 12:00:42;;;;;;;17.05;9.95;;;;;;;;;;5155158;27;20110;-76
2022/11/08 12:03:42;;;;;;;12.98;9.05;;;;;;;;;;5155815;27;20022;-77
2022/11/08 12:06:47;;;;;;;15.18;9.77;;;;;;;;;;5140436;27;20050;-77
2022/11/08 12:09:52;;;;;;;20.70;11.70;;;;;;;;;;5155580;27;20019;-78
2022/11/08 12:12:38;;;;;;;22.73;10.02;;;;;;;;;;5155381;27;20034;-76
2022/11/08 12:15:32;;;;;;;13.77;9.23;;;;;;;;;;5155787;27;20105;-77
2022/11/08 12:18:47;;;;;;;12.57;8.98;;;;;;;;;;5141168;27;20068;-76
2022/11/08 12:21:47;;;;;;;14.10;9.43;;;;;;;;;;5094607;27;20026;-76
2022/11/08 12:24:37;;;;;;;14.93;9.43;;;;;;;;;;5155972;27;20082;-77
2022/11/08 12:27:36;;;;;;;17.05;9.82;;;;;;;;;;5154708;27;20015;-74
2022/11/08 12:30:45;;;;;;;19.35;9.98;;;;;;;;;;5154112;27;20031;-76
2022/11/08 12:33:42;;;;;;;16.92;9.90;;;;;;;;;;5140462;27;20006;-76
2022/11/08 12:36:39;;;;;;;21.38;9.57;;;;;;;;;;5155125;27;20400;-77
2022/11/08 12:39:28;;;;;;;16.67;10.52;;;;;;;;;;5140031;27;20114;-76
2022/11/08 12:42:33;;;;;;;14.48;9.65;;;;;;;;;;5140537;27;20025;-76
2022/11/08 12:45:34;;;;;;;16.73;9.27;;;;;;;;;;5158987;27;20054;-76
2022/11/08 12:48:31;;;;;;;19.20;10.52;;;;;;;;;;5144182;27;20034;-76
2022/11/08 12:51:35;;;;;;;16.90;9.45;;;;;;;;;;5159367;27;20022;-76
2022/11/08 12:54:35;;;;;;;16.38;9.90;;;;;;;;;;5157512;27;20014;-77
2022/11/08 12:57:26;;;;;;;16.25;10.07;;;;;;;;;;5158952;27;20050;-76
2022/11/08 13:00:17;;;;;;;18.70;9.80;;;;;;;;;;5144668;27;20349;-76
2022/11/08 13:03:16;;;;;;;19.00;10.45;;;;;;;;;;5158921;27;20083;-79
2022/11/08 13:06:06;;;;;;;14.05;9.60;;;;;;;;;;5157743;27;20046;-76
2022/11/08 13:09:01;;;;;;;21.10;10.25;;;;;;;;;;5157999;27;20019;-77
2022/11/08 13:12:00;;;;;;;13.57;10.00;;;;;;;;;;5143107;27;20018;-76
2022/11/08 13:14:46;;;;;;;23.00;11.45;;;;;;;;;;5158932;27;20097;-76
2022/11/08 13:17:31;;;;;;;17.42;10.45;;;;;;;;;;5157776;27;20019;-75
2022/11/08 13:20:40;;;;;;;20.73;11.25;;;;;;;;;;5160221;27;20010;-75
2022/11/08 13:23:27;;;;;;;22.30;11.15;;;;;;;;;;5167155;27;20390;-74
2022/11/08 13:26:23;;;;;;;18.42;11.07;;;;;;;;;;5157342;27;20015;-75
2022/11/08 13:29:15;;;;;;;17.33;11.50;;;;;;;;;;5158580;27;20102;-74
2022/11/08 13:32:11;;;;;;;16.77;10.52;;;;;;;;;;5157714;27;20440;-70
2022/11/08 13:35:03;;;;;;;17.90;11.35;;;;;;;;;;5143727;27;20088;-73
2022/11/08 13:37:58;;;;;;;21.80;12.38;;;;;;;;;;5158820;27;20022;-73
2022/11/08 13:41:03;;;;;;;19.90;11.77;;;;;;;;;;5143366;27;20023;-73
2022/11/08 13:43:49;;;;;;;22.40;11.05;;;;;;;;;;5143424;27;20019;-71
2022/11/08 13:46:35;;;;;;;17.55;11.63;;;;;;;;;;5142540;27;20042;-71
2022/11/08 13:49:21;;;;;;;20.27;11.57;;;;;;;;;;5141757;27;20038;-72
2022/11/08 13:52:25;;;;;;;20.23;11.10;;;;;;;;;;5157467;27;20134;-72
2022/11/08 13:55:29;;;;;;;24.30;13.05;;;;;;;;;;5156664;27;20021;-72
2022/11/08 13:58:27;;;;;;;18.92;12.23;;;;;;;;;;5157456;27;20026;-71
2022/11/08 14:01:22;;;;;;;20.42;11.93;;;;;;;;;;5143186;27;20050;-72
2022/11/08 14:04:24;;;;;;;20.40;11.70;;;;;;;;;;5157811;27;20050;-71
2022/11/08 14:07:12;;;;;;;24.63;12.02;;;;;;;;;;5141502;27;20014;-71
2022/11/08 14:10:01;;;;;;;23.60;12.27;;;;;;;;;;5156850;27;20023;-71
2022/11/08 14:13:14;;;;;;;19.88;12.70;;;;;;;;;;5141706;27;20026;-71
2022/11/08 14:16:10;;;;;;;21.50;12.32;;;;;;;;;;5141068;27;20015;-72
2022/11/08 14:19:16;;;;;;;24.58;12.23;;;;;;;;;;5157078;27;20015;-71
2022/11/08 14:22:03;;;;;;;23.38;12.70;;;;;;;;;;5154338;27;20119;-71
2022/11/08 14:24:50;;;;;;;19.50;11.85;;;;;;;;;;5141513;27;20465;-71
2022/11/08 14:27:37;;;;;;;21.58;12.63;;;;;;;;;;5141197;27;20034;-71
2022/11/08 14:30:23;;;;;;;20.65;12.10;;;;;;;;;;5140630;27;20080;-70
2022/11/08 14:33:19;;;;;;;26.15;12.88;;;;;;;;;;5155936;27;20021;-71
2022/11/08 14:36:06;;;;;;;21.73;12.05;;;;;;;;;;5140696;27;20029;-71
2022/11/08 14:38:55;;;;;;;24.88;12.57;;;;;;;;;;5141054;27;20011;-71
2022/11/08 14:41:44;;;;;;;20.25;12.43;;;;;;;;;;5156451;27;20019;-71
2022/11/08 14:44:30;;;;;;;25.80;13.02;;;;;;;;;;5156287;27;20037;-72
2022/11/08 14:47:23;;;;;;;20.30;12.80;;;;;;;;;;5156680;27;20035;-71
2022/11/08 14:50:35;;;;;;;34.85;13.45;;;;;;;;;;5126922;27;20035;-71
2022/11/08 14:53:22;;;;;;;24.55;13.50;;;;;;;;;;5156147;27;20010;-71
2022/11/08 14:56:14;;;;;;;22.92;12.90;;;;;;;;;;5155516;27;20029;-71
2022/11/08 14:59:03;;;;;;;25.73;13.60;;;;;;;;;;5156716;27;20101;-71
2022/11/08 15:01:49;;;;;;;25.90;13.70;;;;;;;;;;5142185;27;20038;-71
2022/11/08 15:04:37;;;;;;;29.88;14.52;;;;;;;;;;5140318;27;20014;-73
2022/11/08 15:07:24;;;;;;;25.73;15.02;;;;;;;;;;5155290;27;20011;-73
2022/11/08 15:10:10;;;;;;;34.75;14.88;;;;;;;;;;5156814;27;20022;-73
2022/11/08 15:12:56;;;;;;;34.58;15.75;;;;;;;;;;5155287;27;20334;-72
2022/11/08 15:15:49;;;;;;;30.05;15.35;;;;;;;;;;5155579;27;20010;-73
2022/11/08 15:18:36;;;;;;;28.52;15.15;;;;;;;;;;5155292;27;20050;-71
2022/11/08 15:21:22;;;;;;;30.30;14.45;;;;;;;;;;5155796;27;20019;-72
2022/11/08 15:24:15;;;;;;;27.27;15.73;;;;;;;;;;5139880;27;20121;-72
2022/11/08 15:27:03;;;;;;;27.23;15.90;;;;;;;;;;5139496;27;20037;-72
2022/11/08 15:29:51;;;;;;;28.65;15.80;;;;;;;;;;5155603;27;20037;-71
2022/11/08 15:32:38;;;;;;;32.13;16.88;;;;;;;;;;5155227;27;20018;-73
2022/11/08 15:35:32;;;;;;;28.73;17.40;;;;;;;;;;5155159;27;20074;-72
2022/11/08 15:38:30;;;;;;;33.30;17.75;;;;;;;;;;5154832;27;20441;-73
2022/11/08 15:41:34;;;;;;;32.65;18.33;;;;;;;;;;5155638;27;20023;-73
2022/11/08 15:44:19;;;;;;;31.23;18.85;;;;;;;;;;5155500;27;20385;-73
2022/11/08 15:47:25;;;;;;;37.58;20.58;;;;;;;;;;5140388;27;20077;-73
2022/11/08 15:50:21;;;;;;;41.50;21.73;;;;;;;;;;5154860;27;20019;-72
2022/11/08 15:53:06;;;;;;;37.85;21.25;;;;;;;;;;5154442;27;20033;-71
2022/11/08 15:55:54;;;;;;;42.65;22.02;;;;;;;;;;5155331;27;20021;-73
2022/11/08 15:58:40;;;;;;;43.92;22.95;;;;;;;;;;5154683;27;20015;-73
2022/11/08 16:01:26;;;;;;;37.50;23.50;;;;;;;;;;5154910;27;20081;-73
2022/11/08 16:04:12;;;;;;;46.10;25.35;;;;;;;;;;5154833;27;20087;-73
2022/11/08 16:06:57;;;;;;;36.50;21.75;;;;;;;;;;5155034;27;20023;-78
2022/11/08 16:09:43;;;;;;;36.50;21.05;;;;;;;;;;5139942;27;20019;-74
2022/11/08 16:12:29;;;;;;;39.53;21.90;;;;;;;;;;5155378;27;20114;-73
2022/11/08 16:15:16;;;;;;;40.85;22.05;;;;;;;;;;5155143;27;20461;-76
2022/11/08 16:18:02;;;;;;;36.75;21.13;;;;;;;;;;5156138;27;20443;-74
2022/11/08 16:20:48;;;;;;;52.30;21.98;;;;;;;;;;5158883;27;20022;-74
2022/11/08 16:23:33;;;;;;;44.10;21.98;;;;;;;;;;5159736;27;20452;-73
2022/11/08 16:26:19;;;;;;;50.60;23.80;;;;;;;;;;5159330;27;20023;-73
2022/11/08 16:29:06;;;;;;;52.90;23.98;;;;;;;;;;5158437;27;20481;-73
2022/11/08 16:31:51;;;;;;;52.47;25.70;;;;;;;;;;5159098;27;20015;-74
2022/11/08 16:34:37;;;;;;;49.55;23.52;;;;;;;;;;5143815;27;20035;-74
2022/11/08 16:37:23;;;;;;;52.67;24.83;;;;;;;;;;5157752;27;20054;-74
2022/11/08 16:40:14;;;;;;;46.30;24.70;;;;;;;;;;5157953;27;20364;-74
2022/11/08 16:43:00;;;;;;;50.00;25.30;;;;;;;;;;5158550;27;20437;-72
2022/11/08 16:45:46;;;;;;;58.22;25.70;;;;;;;;;;5158685;27;20110;-74
2022/11/08 16:48:31;;;;;;;45.92;24.60;;;;;;;;;;5157518;27;20022;-74